Davidson, North Carolina
Current Conditions -  °F | °C
As of 4:55 PM on Saturday 25 Oct 2014 (Local Time) from KJQF Reporting Station
Clear Clear  
Wind Chill: 73°   Ceiling: Unl
Heat Index: 73°   Visibility: 10mi
Dew Point: 30°   Wind: 7mph
Humidity: 20%   Direction: 250°WSW
Pressure: 29.97"   Gusts: NA
Location:  35.5°N, 80.85°W
Report Text: KJQF 252055Z 25006KT 10SM CLR 23/M01 A2997
Loading
Personal Weather Stations






























Interactive Weather Map
Tropical Storm Tracking
New forecast layout! Learn more

10-Day Weather Forecast

Advertisements
Track Severe Weather on mobile